Airbus A320 with 107 people aboard crashes into the residential area of Karachi after ‘three failed landing attempts’

Pakistan International Airlines flight 8303, an Airbus A320, crashed on approach to Karachi-Jinnah International Airport (KHI), Pakistan. Local media report there were 99 passengers on board and 8 crew members. The aircraft came down near a residential area named Model Colony.The weather has no limitation in approaching and landing. OPKC 220925Z 24011KT 7000 NSC 35/24 Q1004 NOSIG The Airbus had been flying from Lahore to Jinnah, which usually takes 90 minutes before it went down in the Model Colony area as it began its final approach to land at Karachi…